createdAt,value
2019-06-08T00:04:30.225Z,11.1
2019-06-08T00:09:20.412Z,11.2
2019-06-08T00:14:07.916Z,11.2
2019-06-08T00:18:55.259Z,11.2
2019-06-08T00:26:38.706Z,11.2
2019-06-08T00:31:26.377Z,11.2
2019-06-08T00:36:14.709Z,11.2
2019-06-08T00:41:01.686Z,11.2
2019-06-08T00:45:48.904Z,11.3
2019-06-08T00:52:10.447Z,11.3
2019-06-08T00:56:58.196Z,11.4
2019-06-08T01:01:45.292Z,11.4
2019-06-08T01:06:32.078Z,11.4
2019-06-08T01:11:20.809Z,11.5
2019-06-08T01:18:02.650Z,11.6
2019-06-08T01:22:50.965Z,11.6
2019-06-08T01:27:39.968Z,11.6
2019-06-08T01:32:27.030Z,11.7
2019-06-08T01:37:13.868Z,11.8
2019-06-08T01:43:19.817Z,11.8
2019-06-08T01:48:19.586Z,11.9
2019-06-08T01:53:08.299Z,11.9
2019-06-08T01:57:55.132Z,12
2019-06-08T02:07:32.576Z,12.1
2019-06-08T02:12:20.715Z,12.2
2019-06-08T02:17:07.562Z,12.2
2019-06-08T02:21:54.482Z,12.3
2019-06-08T02:29:35.978Z,12.4
2019-06-08T02:34:23.183Z,12.5
2019-06-08T02:39:10.169Z,12.6
2019-06-08T02:43:57.560Z,12.6
2019-06-08T02:51:41.324Z,12.7
2019-06-08T02:56:29.903Z,12.8
2019-06-08T03:01:18.321Z,12.9
2019-06-08T03:06:05.656Z,13
2019-06-08T03:14:06.640Z,13.1
2019-06-08T03:18:53.751Z,13.2
2019-06-08T03:23:41.493Z,13.3
2019-06-08T03:28:34.954Z,13.3
2019-06-08T03:36:58.641Z,13.5
2019-06-08T03:41:46.496Z,13.6
2019-06-08T03:46:34.473Z,13.6
2019-06-08T03:51:21.802Z,13.7
2019-06-08T03:59:04.039Z,13.8
2019-06-08T04:03:51.460Z,13.9
2019-06-08T04:08:40.803Z,14
2019-06-08T04:13:30.425Z,14.1
2019-06-08T04:21:50.258Z,14.2
2019-06-08T04:26:38.554Z,14.3
2019-06-08T04:31:27.428Z,14.4
2019-06-08T04:36:14.188Z,14.4
2019-06-08T04:45:33.229Z,14.6
2019-06-08T04:50:23.672Z,14.7
2019-06-08T04:55:11.960Z,14.8
2019-06-08T04:59:59.710Z,14.8
2019-06-08T05:08:03.711Z,15
2019-06-08T05:12:51.867Z,15
2019-06-08T05:17:39.399Z,15.1
2019-06-08T05:22:26.947Z,15.2
2019-06-08T05:30:23.500Z,15.3
2019-06-08T05:35:11.903Z,15.3
2019-06-08T05:39:59.535Z,15.3
2019-06-08T05:44:47.852Z,15.4
2019-06-08T05:54:10.543Z,15.5
2019-06-08T05:58:58.364Z,15.6
2019-06-08T06:03:46.540Z,15.6
2019-06-08T06:08:34.564Z,15.7
2019-06-08T06:14:25.204Z,15.7
2019-06-08T06:19:12.853Z,15.8
2019-06-08T06:24:01.575Z,15.9
2019-06-08T06:28:49.711Z,16
2019-06-08T06:34:56.932Z,16.1
2019-06-08T06:39:44.056Z,16.2
2019-06-08T06:44:30.959Z,16.2
2019-06-08T06:53:18.368Z,16.4
2019-06-08T06:58:05.671Z,16.5
2019-06-08T07:02:53.902Z,16.5
2019-06-08T07:07:41.457Z,16.7
2019-06-08T07:12:28.725Z,16.7
2019-06-08T07:17:16.242Z,16.8
2019-06-08T07:22:03.768Z,16.9
2019-06-08T07:26:52.237Z,17
2019-06-08T07:33:28.566Z,17.1
2019-06-08T07:38:16.385Z,17.2
2019-06-08T07:43:03.388Z,17.3
2019-06-08T07:47:51.928Z,17.4
2019-06-08T07:56:16.343Z,17.5
2019-06-08T08:01:08.234Z,17.6
2019-06-08T08:05:56.765Z,17.7
2019-06-08T08:10:44.027Z,17.7
2019-06-08T08:17:53.860Z,17.9
2019-06-08T08:22:42.085Z,18
2019-06-08T08:27:29.358Z,18
2019-06-08T08:35:24.056Z,18.2
2019-06-08T08:40:11.174Z,18.2
2019-06-08T08:45:02.654Z,18.3
2019-06-08T08:49:52.149Z,18.3
2019-06-08T08:54:42.543Z,18.4
2019-06-08T09:00:40.838Z,18.5
2019-06-08T09:05:28.888Z,18.4
2019-06-08T09:10:18.430Z,18.5
2019-06-08T09:15:08.634Z,18.5
2019-06-08T09:19:58.892Z,18.5
2019-06-08T09:24:49.067Z,18.5
2019-06-08T09:29:38.728Z,18.5
2019-06-08T09:34:28.117Z,18.5
2019-06-08T09:39:18.566Z,18.5
2019-06-08T09:44:10.700Z,18.5
2019-06-08T09:49:04.794Z,18.5
2019-06-08T09:53:57.110Z,18.5
2019-06-08T09:58:51.147Z,18.5
2019-06-08T10:03:39.333Z,18.5
2019-06-08T10:08:28.252Z,18.5
2019-06-08T10:13:15.285Z,18.5
2019-06-08T10:18:04.961Z,18.5
2019-06-08T10:22:52.747Z,18.5
2019-06-08T10:27:40.564Z,18.5
2019-06-08T10:32:28.321Z,18.5
2019-06-08T10:37:15.365Z,18.5
2019-06-08T10:42:04.897Z,18.5
2019-06-08T10:46:53.166Z,18.5
2019-06-08T10:51:42.927Z,18.4
2019-06-08T10:56:31.179Z,18.4
2019-06-08T11:01:18.902Z,18.4
2019-06-08T11:06:10.970Z,18.4
2019-06-08T11:11:01.239Z,18.4
2019-06-08T11:15:50.197Z,18.4
2019-06-08T11:20:38.170Z,18.4
2019-06-08T11:25:27.998Z,18.3
2019-06-08T11:30:23.388Z,18.3
2019-06-08T11:35:14.547Z,18.3
2019-06-08T11:40:02.204Z,18.3
2019-06-08T11:44:51.258Z,18.3
2019-06-08T11:49:39.268Z,18.3
2019-06-08T11:54:36.138Z,18.3
2019-06-08T11:59:24.831Z,18.2
2019-06-08T12:04:13.316Z,18.2
2019-06-08T12:09:00.700Z,18.2
2019-06-08T12:13:47.790Z,18.2
2019-06-08T12:18:34.634Z,18.2
2019-06-08T12:23:21.949Z,18.2
2019-06-08T12:28:08.951Z,18.2
2019-06-08T12:32:58.169Z,18.2
2019-06-08T12:37:45.208Z,18.2
2019-06-08T12:42:32.464Z,18.1
2019-06-08T12:47:26.218Z,18.1
2019-06-08T12:52:16.764Z,18.1
2019-06-08T12:57:11.978Z,18.1
2019-06-08T13:02:02.433Z,18.1
2019-06-08T13:06:50.779Z,18.1
2019-06-08T13:11:38.863Z,18.1
2019-06-08T13:16:28.320Z,18.1
2019-06-08T13:21:25.406Z,18.1
2019-06-08T13:26:27.631Z,18.1
2019-06-08T13:31:19.311Z,18.1
2019-06-08T13:36:10.162Z,18.1
2019-06-08T13:40:59.086Z,18.1
2019-06-08T13:45:48.539Z,18.1
2019-06-08T13:50:38.736Z,18.1
2019-06-08T13:55:47.975Z,18.1
2019-06-08T14:00:35.170Z,18.1
2019-06-08T14:05:26.533Z,18.1
2019-06-08T14:10:19.593Z,18.1
2019-06-08T14:15:08.709Z,18.1
2019-06-08T14:19:58.676Z,18
2019-06-08T14:24:47.867Z,18
2019-06-08T14:29:35.988Z,18.1
2019-06-08T14:34:23.683Z,18
2019-06-08T14:39:12.174Z,18
2019-06-08T14:43:59.485Z,18
2019-06-08T14:48:46.437Z,18
2019-06-08T14:53:33.371Z,18
2019-06-08T14:58:24.109Z,18
2019-06-08T15:03:17.833Z,18
2019-06-08T15:08:08.335Z,18
2019-06-08T15:12:58.063Z,18
2019-06-08T15:17:47.698Z,18
2019-06-08T15:22:34.659Z,18
2019-06-08T15:27:23.622Z,18
2019-06-08T15:32:12.545Z,18
2019-06-08T15:36:59.453Z,18
2019-06-08T15:41:48.783Z,18
2019-06-08T15:46:37.951Z,18
2019-06-08T15:51:33.380Z,18
2019-06-08T15:56:38.160Z,18
2019-06-08T16:01:33.571Z,18
2019-06-08T16:06:20.685Z,18
2019-06-08T16:11:07.866Z,18
2019-06-08T16:15:55.075Z,18
2019-06-08T16:20:42.634Z,18
2019-06-08T16:25:29.828Z,18
2019-06-08T16:30:16.934Z,18
2019-06-08T16:35:05.961Z,18
2019-06-08T16:39:53.088Z,18
2019-06-08T16:44:40.058Z,18
2019-06-08T16:49:27.161Z,18
2019-06-08T16:54:14.899Z,18
2019-06-08T16:59:02.967Z,18
2019-06-08T17:03:49.798Z,18
2019-06-08T17:08:39.168Z,18
2019-06-08T17:13:30.072Z,18
2019-06-08T17:18:17.299Z,18
2019-06-08T17:23:04.816Z,18
2019-06-08T17:27:53.446Z,18
2019-06-08T17:32:42.141Z,18
2019-06-08T17:37:31.566Z,18
2019-06-08T17:42:18.451Z,18
2019-06-08T17:47:05.445Z,18
2019-06-08T17:51:54.479Z,18
2019-06-08T17:56:43.345Z,18
2019-06-08T18:01:34.053Z,18
2019-06-08T18:06:22.894Z,18
2019-06-08T18:11:10.611Z,18
2019-06-08T18:15:57.768Z,18
2019-06-08T18:20:44.988Z,18
2019-06-08T18:25:32.552Z,18
2019-06-08T18:30:19.881Z,18
2019-06-08T18:35:09.724Z,18
2019-06-08T18:39:57.835Z,18.1
2019-06-08T18:44:46.490Z,18.1
2019-06-08T18:49:38.401Z,18.1
2019-06-08T18:54:28.246Z,18.1
2019-06-08T18:59:17.819Z,18.1
2019-06-08T19:04:07.680Z,18.1
2019-06-08T19:08:57.799Z,18.2
2019-06-08T19:13:47.361Z,18.2
2019-06-08T19:18:41.419Z,18.6
2019-06-08T19:23:32.400Z,18.9
2019-06-08T19:28:35.148Z,18.9
2019-06-08T19:33:23.628Z,18.9
2019-06-08T19:38:10.756Z,18.9
2019-06-08T19:43:01.203Z,18.9
2019-06-08T19:47:49.699Z,18.9
2019-06-08T19:52:41.057Z,18.6
2019-06-08T19:57:29.600Z,18.6
2019-06-08T20:02:17.733Z,18.6
2019-06-08T20:07:08.456Z,18.5
2019-06-08T20:11:59.789Z,18.6
2019-06-08T20:16:50.759Z,18.6
2019-06-08T20:21:38.935Z,18.6
2019-06-08T20:26:28.423Z,18.7
2019-06-08T20:31:17.890Z,18.8
2019-06-08T20:36:08.293Z,18.8
2019-06-08T20:40:58.014Z,18.8
2019-06-08T20:45:48.736Z,18.9
2019-06-08T20:50:37.801Z,18.9
2019-06-08T20:55:25.365Z,18.9
2019-06-08T21:00:12.368Z,18.9
2019-06-08T21:04:59.707Z,19
2019-06-08T21:09:50.700Z,18.9
2019-06-08T21:14:39.248Z,18.9
2019-06-08T21:19:28.083Z,19
2019-06-08T21:24:17.332Z,19
2019-06-08T21:29:05.206Z,19
2019-06-08T21:33:54.039Z,19
2019-06-08T21:38:43.409Z,19
2019-06-08T21:43:30.976Z,19
2019-06-08T21:48:18.265Z,19
2019-06-08T21:53:07.697Z,19
2019-06-08T21:57:59.435Z,19
2019-06-08T22:02:48.040Z,19
2019-06-08T22:07:34.966Z,18.9
2019-06-08T22:12:22.299Z,18.9
2019-06-08T22:17:10.105Z,18.9
2019-06-08T22:21:59.818Z,18.9
2019-06-08T22:26:49.262Z,18.9
2019-06-08T22:31:37.592Z,18.9
2019-06-08T22:36:24.793Z,18.9
2019-06-08T22:41:12.622Z,18.9
2019-06-08T22:48:22.764Z,18.9
2019-06-08T22:53:10.260Z,18.8
2019-06-08T22:57:59.600Z,18.8
2019-06-08T23:02:49.040Z,18.8
2019-06-08T23:07:37.486Z,18.8
2019-06-08T23:12:24.922Z,18.8
2019-06-08T23:17:13.040Z,18.8
2019-06-08T23:22:02.434Z,18.8
2019-06-08T23:26:49.888Z,18.7
2019-06-08T23:34:14.327Z,18.7
2019-06-08T23:39:03.083Z,18.7
2019-06-08T23:43:50.067Z,18.7
2019-06-08T23:48:37.476Z,18.7
2019-06-08T23:53:27.475Z,18.6
2019-06-08T23:58:17.496Z,18.6
